Terminal Aerodrome Forecast
Issued by NWS Tuscon, AZ

Home | Current Version | Previous Version | Text Only | Print | Product List | Glossary On
Versions: 1 2 3 4 5 6 7 8 9 10 11 12 13
000
FTUS45 KTWC 191100
TAFTUS
TAF
KTUS 191127Z 1912/2012 14010KT P6SM SKC
     FM191500 VRB03KT P6SM SKC
     FM191900 31009KT P6SM FEW250
     FM200200 23005KT P6SM FEW250
     FM200700 14007KT P6SM SCT250=

USA.gov is the U.S. government's official web portal to all federal, state and local government web resources and services.